Time;durP1;ratioP1;P1;durP2;ratioP2;P2;SDS_P1;SDS_P2;PMS_P1;PMS_P2;Temp;Humidity;BMP_temperature;BMP_pressure;BME280_temperature;BME280_humidity;BME280_pressure;Samples;Min_cycle;Max_cycle;Signal;HPM_P1;HPM_P2
2021/11/07 00:01:37;;;;;;;;;21.25;18.25;;;;;20.60;45.33;101706.81;5024656;28;45186;-80
2021/11/07 00:07:09;;;;;;;;;21.75;19.25;;;;;20.56;45.30;101702.44;5026009;28;45250;-79
2021/11/07 00:09:58;;;;;;;;;22.00;19.00;;;;;20.53;45.32;101695.41;5026166;28;47973;-81
2021/11/07 00:12:30;;;;;;;;;22.25;18.00;;;;;20.55;45.19;101709.50;5024391;28;45380;-81
2021/11/07 00:14:56;;;;;;;;;21.50;18.75;;;;;20.55;45.29;101716.59;5023713;28;45506;-78
2021/11/07 00:17:29;;;;;;;;;20.00;17.50;;;;;20.52;45.23;101698.09;5022626;28;45372;-78
2021/11/07 00:20:05;;;;;;;;;20.50;17.50;;;;;20.56;44.54;101697.13;5039320;28;46867;-79
2021/11/07 00:22:57;;;;;;;;;20.50;20.25;;;;;20.57;45.35;101686.47;5039517;28;45466;-79
2021/11/07 00:25:48;;;;;;;;;17.25;15.50;;;;;20.60;44.59;101678.50;5030322;28;45339;-81
2021/11/07 00:28:18;;;;;;;;;19.50;17.75;;;;;20.60;44.51;101667.00;5039488;28;45418;-79
2021/11/07 00:38:39;;;;;;;;;17.25;16.00;;;;;20.63;44.63;101671.38;5039209;28;45288;-79
2021/11/07 00:43:48;;;;;;;;;18.50;16.50;;;;;20.64;45.14;101681.09;5040662;28;45472;-79
2021/11/07 00:46:21;;;;;;;;;19.50;19.50;;;;;20.62;44.71;101672.28;5023684;28;45398;-79
2021/11/07 00:51:30;;;;;;;;;19.00;16.00;;;;;20.60;45.05;101689.09;5039027;28;45244;-79
2021/11/07 00:54:15;;;;;;;;;19.50;18.25;;;;;20.58;45.29;101671.44;5040114;28;45862;-79
2021/11/07 00:56:47;;;;;;;;;18.50;15.00;;;;;20.62;44.71;101683.78;5028442;28;45285;-79
2021/11/07 01:02:02;;;;;;;;;21.75;18.00;;;;;20.57;44.70;101675.00;5060041;28;45329;-79
2021/11/07 01:04:29;;;;;;;;;21.00;19.25;;;;;20.58;45.45;101666.13;5043778;28;45255;-79
2021/11/07 01:06:54;;;;;;;;;16.25;15.25;;;;;20.54;45.37;101662.69;5053691;28;45391;-79
2021/11/07 01:09:20;;;;;;;;;18.25;16.00;;;;;20.58;45.01;101652.88;5025159;28;60084;-79
2021/11/07 01:11:48;;;;;;;;;18.25;13.75;;;;;20.57;45.45;101645.81;5052982;28;46329;-78
2021/11/07 01:14:13;;;;;;;;;19.50;19.00;;;;;20.58;45.01;101644.91;5030308;28;45849;-79
2021/11/07 01:16:39;;;;;;;;;16.50;15.00;;;;;20.56;45.29;101644.97;5039644;28;45382;-79
2021/11/07 01:19:04;;;;;;;;;15.00;14.25;;;;;20.57;45.31;101632.56;5025333;28;45429;-79
2021/11/07 01:21:37;;;;;;;;;15.75;12.75;;;;;20.57;45.22;101641.41;5024864;28;54790;-79
2021/11/07 01:24:06;;;;;;;;;17.00;13.25;;;;;20.54;44.98;101629.97;5060027;28;45368;-78
2021/11/07 01:26:46;;;;;;;;;17.25;15.00;;;;;20.58;45.21;101634.31;5058327;28;45317;-79
2021/11/07 01:31:40;;;;;;;;;14.25;12.50;;;;;20.58;44.83;101613.97;5058624;28;45268;-79
2021/11/07 01:34:06;;;;;;;;;14.75;12.75;;;;;20.59;44.92;101609.56;5061062;28;45280;-79
2021/11/07 01:41:57;;;;;;;;;16.00;13.75;;;;;20.57;44.77;101592.78;5062210;28;46105;-80
2021/11/07 01:44:20;;;;;;;;;14.50;13.50;;;;;20.56;44.90;101588.38;5047816;28;45265;-80
2021/11/07 01:46:50;;;;;;;;;17.00;13.00;;;;;20.57;44.27;101569.78;5045057;28;45407;-80
2021/11/07 01:49:22;;;;;;;;;13.25;13.00;;;;;20.58;44.76;101575.97;5046255;28;45451;-80
2021/11/07 01:51:51;;;;;;;;;15.25;12.00;;;;;20.58;44.58;101575.97;5061978;28;45959;-80
2021/11/07 01:54:26;;;;;;;;;15.25;13.25;;;;;20.58;44.76;101575.97;5041983;28;45273;-80
2021/11/07 01:56:51;;;;;;;;;19.25;14.50;;;;;20.59;44.73;101586.56;5043478;28;45253;-80
2021/11/07 01:59:17;;;;;;;;;13.25;11.75;;;;;20.58;44.90;101581.28;5061896;28;45288;-80
2021/11/07 02:01:55;;;;;;;;;14.25;13.25;;;;;20.56;45.11;101583.09;5044771;28;45669;-80
2021/11/07 02:04:20;;;;;;;;;14.25;13.00;;;;;20.55;45.17;101579.56;5062608;28;45348;-80
2021/11/07 02:06:46;;;;;;;;;15.00;13.00;;;;;20.56;44.91;101572.47;5045023;28;45443;-80
2021/11/07 02:09:12;;;;;;;;;14.25;13.50;;;;;20.56;45.24;101578.66;5028110;28;45565;-80
2021/11/07 02:11:38;;;;;;;;;14.50;12.75;;;;;20.56;44.94;101569.81;5061405;28;45923;-80
2021/11/07 02:14:03;;;;;;;;;15.00;12.50;;;;;20.57;45.33;101571.56;5061653;28;45494;-80
2021/11/07 02:16:28;;;;;;;;;13.25;13.00;;;;;20.56;45.07;101572.47;5044608;28;45812;-79
2021/11/07 02:18:55;;;;;;;;;15.75;11.50;;;;;20.54;45.18;101569.84;5027897;28;46031;-79
2021/11/07 02:21:20;;;;;;;;;11.00;11.00;;;;;20.52;45.11;101566.38;5061297;28;46860;-79
2021/11/07 02:23:46;;;;;;;;;14.75;13.75;;;;;20.51;45.46;101561.97;5027787;28;53505;-79
2021/11/07 02:26:11;;;;;;;;;11.00;10.75;;;;;20.52;45.84;101554.88;5044598;28;45179;-79
2021/11/07 02:29:06;;;;;;;;;17.00;16.25;;;;;20.51;45.75;101558.44;5047875;28;45267;-79
2021/11/07 02:31:49;;;;;;;;;10.00;9.75;;;;;20.50;45.37;101564.63;5034904;28;48398;-79
2021/11/07 02:34:18;;;;;;;;;15.00;14.00;;;;;20.42;45.46;101540.03;5062390;28;45227;-79
2021/11/07 02:36:59;;;;;;;;;;;;;;;;;;;;;
2021/11/07 02:39:25;;;;;;;;;11.75;11.50;;;;;20.45;45.89;101540.88;5060345;28;72835;-79
2021/11/07 02:41:50;;;;;;;;;12.50;12.50;;;;;20.38;45.79;101525.94;5044336;28;47293;-78
2021/11/07 02:44:29;;;;;;;;;14.00;12.75;;;;;20.51;45.43;101543.41;5056043;28;45186;-79
2021/11/07 02:46:55;;;;;;;;;13.50;12.75;;;;;20.51;45.56;101529.28;5038544;28;45336;-78
2021/11/07 02:49:20;;;;;;;;;14.00;13.00;;;;;20.48;45.49;101524.88;5028203;28;45586;-78
2021/11/07 02:51:46;;;;;;;;;13.00;11.00;;;;;20.51;45.55;101526.63;5061019;28;47459;-78
2021/11/07 02:54:12;;;;;;;;;12.75;12.75;;;;;20.50;45.88;101514.25;5033886;28;45356;-78
2021/11/07 02:56:37;;;;;;;;;14.25;13.25;;;;;20.45;45.98;101503.75;5060963;28;45354;-78
2021/11/07 02:59:03;;;;;;;;;16.75;12.75;;;;;20.50;45.75;101512.50;5045189;28;45387;-78
2021/11/07 03:01:29;;;;;;;;;11.00;9.75;;;;;20.52;45.68;101515.97;5054873;28;46086;-78
2021/11/07 03:04:01;;;;;;;;;12.00;12.00;;;;;20.52;46.11;101513.34;5044013;28;45272;-79
2021/11/07 03:06:29;;;;;;;;;12.50;12.50;;;;;20.53;46.21;101516.84;5028541;28;45527;-79
2021/11/07 03:08:54;;;;;;;;;15.00;12.25;;;;;20.54;45.62;101515.94;5044582;28;45410;-78
2021/11/07 03:11:20;;;;;;;;;14.00;12.00;;;;;20.52;45.94;101507.16;5060225;28;53625;-78
2021/11/07 03:13:47;;;;;;;;;13.25;10.50;;;;;20.55;45.94;101504.44;5060893;28;45279;-78
2021/11/07 03:16:13;;;;;;;;;14.50;9.50;;;;;20.51;45.96;101506.28;5044374;28;45345;-78
2021/11/07 03:18:39;;;;;;;;;10.75;10.00;;;;;20.51;46.28;101500.97;5043679;28;45359;-78
2021/11/07 03:21:08;;;;;;;;;11.50;11.50;;;;;20.54;46.02;101500.91;5043807;28;45583;-78
2021/11/07 03:23:37;;;;;;;;;14.50;14.00;;;;;20.50;46.10;101500.97;5027230;28;45236;-78
2021/11/07 03:26:08;;;;;;;;;9.25;9.25;;;;;20.51;45.84;101503.63;5044223;28;45577;-78
2021/11/07 03:28:34;;;;;;;;;10.00;10.00;;;;;20.51;46.34;101500.97;5045201;28;45813;-78
2021/11/07 03:33:29;;;;;;;;;10.50;9.75;;;;;20.46;46.48;101494.00;5060346;28;45495;-78
2021/11/07 03:35:55;;;;;;;;;16.00;13.50;;;;;20.45;46.39;101490.47;5060424;28;45447;-78
2021/11/07 03:38:23;;;;;;;;;11.75;10.50;;;;;20.46;46.56;101494.00;5047605;28;45360;-78
2021/11/07 03:40:48;;;;;;;;;13.00;13.00;;;;;20.44;46.48;101493.16;5041434;28;47208;-78
2021/11/07 03:43:13;;;;;;;;;13.50;12.25;;;;;20.45;46.74;101489.59;5043669;28;45285;-78
2021/11/07 03:45:39;;;;;;;;;10.75;10.75;;;;;20.42;46.85;101487.88;5061501;28;45382;-78
2021/11/07 03:48:05;;;;;;;;;13.50;10.50;;;;;20.42;46.70;101492.28;5026352;28;52543;-78
2021/11/07 03:50:30;;;;;;;;;9.00;8.75;;;;;20.42;46.69;101489.66;5059960;28;48261;-78
2021/11/07 03:52:56;;;;;;;;;12.75;11.00;;;;;20.42;46.93;101489.66;5060126;28;45700;-78
2021/11/07 03:55:22;;;;;;;;;13.25;11.25;;;;;20.40;46.67;101491.44;5042612;28;45254;-78
2021/11/07 03:57:47;;;;;;;;;13.00;10.25;;;;;20.38;46.53;101496.75;5059913;28;45467;-78
2021/11/07 04:00:13;;;;;;;;;10.25;10.25;;;;;20.39;46.74;101497.63;5059017;28;59985;-78
2021/11/07 04:02:39;;;;;;;;;13.00;10.00;;;;;20.39;46.91;101492.34;5060361;28;45466;-79
2021/11/07 04:05:05;;;;;;;;;12.00;10.75;;;;;20.37;46.76;101496.81;5045033;28;45368;-78
2021/11/07 04:07:31;;;;;;;;;13.50;11.00;;;;;20.38;46.75;101493.25;5050883;28;45481;-78
2021/11/07 04:09:56;;;;;;;;;11.75;10.00;;;;;20.40;46.81;101489.66;5060780;28;45665;-78
2021/11/07 04:12:22;;;;;;;;;11.00;11.00;;;;;20.41;47.02;101483.44;5060006;28;45478;-79
2021/11/07 04:14:47;;;;;;;;;10.25;9.00;;;;;20.41;47.13;101475.47;5076231;28;59954;-78
2021/11/07 04:17:12;;;;;;;;;12.25;12.00;;;;;20.44;46.81;101474.59;5043300;28;45515;-78
2021/11/07 04:19:38;;;;;;;;;12.75;10.00;;;;;20.44;46.76;101479.91;5042241;28;62455;-79
2021/11/07 04:22:06;;;;;;;;;13.25;10.25;;;;;20.43;46.59;101486.09;5059781;28;45205;-78
2021/11/07 04:24:32;;;;;;;;;11.00;10.00;;;;;20.41;46.98;101471.97;5059972;28;45220;-78
2021/11/07 04:26:58;;;;;;;;;11.50;10.50;;;;;20.44;46.80;101471.97;5043005;28;45187;-78
2021/11/07 04:29:23;;;;;;;;;11.75;11.75;;;;;20.43;47.04;101462.22;5059238;28;46346;-78
2021/11/07 04:31:49;;;;;;;;;12.50;11.75;;;;;20.44;46.93;101471.97;5060735;28;45422;-78
2021/11/07 04:34:14;;;;;;;;;12.00;12.00;;;;;20.42;46.82;101468.44;5060713;28;45350;-78
2021/11/07 04:36:40;;;;;;;;;13.25;10.50;;;;;20.41;46.86;101466.66;5060722;28;45387;-78
2021/11/07 04:39:05;;;;;;;;;10.50;10.25;;;;;20.40;47.07;101471.09;5058985;28;47889;-78
2021/11/07 04:41:31;;;;;;;;;9.50;8.75;;;;;20.39;47.12;101461.41;5059466;28;45383;-79
2021/11/07 04:43:56;;;;;;;;;12.25;11.00;;;;;20.39;47.26;101458.75;5059353;28;45294;-78
2021/11/07 04:46:22;;;;;;;;;10.00;9.50;;;;;20.38;46.89;101467.59;5058941;28;52927;-78
2021/11/07 04:48:47;;;;;;;;;9.00;9.00;;;;;20.37;46.80;101457.91;5058808;28;46620;-79
2021/11/07 04:51:13;;;;;;;;;9.00;9.00;;;;;20.35;46.77;101461.50;5060615;28;45311;-78
2021/11/07 04:53:38;;;;;;;;;11.00;9.50;;;;;20.34;47.25;101463.28;5060318;28;45501;-78
2021/11/07 04:56:04;;;;;;;;;9.75;8.50;;;;;20.33;46.90;101454.44;5042597;28;45470;-79
2021/11/07 04:58:30;;;;;;;;;9.50;8.00;;;;;20.32;46.99;101449.16;5058828;28;46975;-79
2021/11/07 05:00:56;;;;;;;;;12.25;10.25;;;;;20.33;46.90;101441.19;5060373;28;45228;-79
2021/11/07 05:03:21;;;;;;;;;11.00;9.50;;;;;20.32;47.17;101438.56;5041984;28;45205;-79
2021/11/07 05:05:46;;;;;;;;;12.50;9.75;;;;;20.32;47.43;101436.78;5059125;28;45486;-79
2021/11/07 05:08:12;;;;;;;;;10.25;8.50;;;;;20.34;47.13;101439.41;5058708;28;47076;-79
2021/11/07 05:10:37;;;;;;;;;10.25;8.75;;;;;20.33;47.61;101429.72;5058724;28;52238;-80
2021/11/07 05:13:03;;;;;;;;;9.50;9.50;;;;;20.36;47.59;101434.94;5059092;28;45411;-81
2021/11/07 05:15:29;;;;;;;;;9.50;9.50;;;;;20.38;47.62;101429.63;5058912;28;45401;-79
2021/11/07 05:17:54;;;;;;;;;12.00;9.25;;;;;20.38;47.31;101422.53;5058181;28;45640;-79
2021/11/07 05:20:20;;;;;;;;;9.75;8.75;;;;;20.39;47.42;101416.31;5059642;28;59359;-78
2021/11/07 05:22:45;;;;;;;;;9.50;8.75;;;;;20.41;47.25;101413.63;5058814;28;45377;-81
2021/11/07 05:25:12;;;;;;;;;10.00;9.25;;;;;20.41;47.18;101406.53;5059799;28;52017;-80
2021/11/07 05:27:37;;;;;;;;;8.25;8.25;;;;;20.42;47.08;101402.16;5058609;28;45475;-80
2021/11/07 05:30:04;;;;;;;;;10.25;8.50;;;;;20.43;47.28;101414.50;5041566;28;56386;-80
2021/11/07 05:32:30;;;;;;;;;12.75;10.25;;;;;20.42;47.23;101418.94;5042044;28;45268;-79
2021/11/07 05:34:56;;;;;;;;;10.00;9.00;;;;;20.40;47.26;101407.47;5042074;28;45287;-81
2021/11/07 05:37:21;;;;;;;;;12.25;12.00;;;;;20.39;46.83;101415.44;5024883;28;48190;-81
2021/11/07 05:39:46;;;;;;;;;13.00;10.00;;;;;20.39;46.92;101411.03;5041966;28;45225;-81
2021/11/07 05:45:23;;;;;;;;;8.75;8.25;;;;;20.37;47.22;101393.41;5050249;28;45559;-80
2021/11/07 05:47:50;;;;;;;;;15.00;10.50;;;;;20.38;47.25;101397.81;5058604;28;67153;-81
2021/11/07 05:51:12;;;;;;;;;;;;;;;;;;;;;
2021/11/07 05:53:38;;;;;;;;;9.50;8.50;;;;;20.38;47.12;101397.81;4996341;28;69334;-81
2021/11/07 05:56:04;;;;;;;;;10.25;9.75;;;;;20.26;47.26;101378.59;4997872;28;45523;-80
2021/11/07 06:02:22;;;;;;;;;8.75;8.75;;;;;20.28;47.16;101383.88;5017470;28;45525;-79
2021/11/07 06:05:34;;;;;;;;;8.00;8.00;;;;;20.33;47.68;101401.44;5016331;28;45881;-81
2021/11/07 06:12:26;;;;;;;;;10.00;9.00;;;;;20.31;47.51;101405.00;4878983;29;45679;-81
2021/11/07 06:22:43;;;;;;;;;9.50;7.75;;;;;20.28;47.54;101416.53;4937380;28;45274;-80
2021/11/07 06:25:08;;;;;;;;;7.75;7.50;;;;;20.18;47.80;101406.16;5033597;28;47969;-80
2021/11/07 06:27:35;;;;;;;;;8.50;8.50;;;;;20.18;47.84;101407.03;5055357;28;45321;-80
2021/11/07 06:30:01;;;;;;;;;9.75;7.25;;;;;20.18;47.53;101414.97;5028297;28;45314;-80
2021/11/07 06:32:26;;;;;;;;;8.75;8.50;;;;;20.18;47.83;101412.34;5061159;28;45655;-81
2021/11/07 06:34:52;;;;;;;;;9.00;9.00;;;;;20.19;47.76;101413.22;5060866;28;61667;-80
2021/11/07 06:37:17;;;;;;;;;11.25;9.75;;;;;20.22;47.58;101414.00;5044286;28;45392;-80
2021/11/07 06:39:43;;;;;;;;;7.00;7.00;;;;;20.19;47.47;101410.56;5046661;28;45749;-80
2021/11/07 06:42:09;;;;;;;;;11.00;9.00;;;;;20.21;47.56;101414.91;5039620;28;45321;-80
2021/11/07 06:44:34;;;;;;;;;11.50;8.50;;;;;20.21;47.67;101406.97;5044381;28;47603;-80
2021/11/07 06:47:00;;;;;;;;;9.50;9.00;;;;;20.15;47.87;101385.88;5044139;28;45554;-80
2021/11/07 06:49:26;;;;;;;;;6.50;6.50;;;;;20.25;47.96;101391.88;5061475;28;45332;-79
2021/11/07 06:51:51;;;;;;;;;7.75;7.00;;;;;20.24;47.53;101391.03;5047106;28;52858;-80
2021/11/07 06:54:17;;;;;;;;;8.25;7.75;;;;;20.27;47.48;101393.59;5044219;28;45400;-79
2021/11/07 06:56:42;;;;;;;;;8.00;8.00;;;;;20.28;47.84;101386.50;5044201;28;45757;-79
2021/11/07 06:59:07;;;;;;;;;9.50;9.25;;;;;20.31;48.09;101389.09;5061066;28;45445;-76
2021/11/07 07:01:33;;;;;;;;;10.00;8.25;;;;;20.36;48.09;101391.66;5060632;28;45501;-86
2021/11/07 07:03:59;;;;;;;;;12.00;11.25;;;;;20.41;49.14;101389.78;5044407;28;46057;-81
2021/11/07 07:06:24;;;;;;;;;11.00;10.50;;;;;20.49;50.28;101386.09;5046182;28;45236;-85
2021/11/07 07:08:56;;;;;;;;;9.00;8.25;;;;;20.61;50.84;101384.97;5044499;28;45753;-76
2021/11/07 07:11:28;;;;;;;;;9.00;9.00;;;;;20.72;49.94;101380.28;5060774;28;45332;-75
2021/11/07 07:14:04;;;;;;;;;11.00;8.00;;;;;20.79;49.28;101383.69;5044937;28;48091;-74
2021/11/07 07:16:42;;;;;;;;;9.50;7.50;;;;;20.91;49.42;101382.50;5029885;28;45342;-75
2021/11/07 07:21:49;;;;;;;;;11.00;11.00;;;;;20.99;48.76;101381.44;5060712;28;45238;-75
2021/11/07 07:27:50;;;;;;;;;10.25;8.00;;;;;21.04;49.23;101379.56;5060711;28;45332;-78
2021/11/07 07:34:59;;;;;;;;;9.50;9.00;;;;;21.12;48.63;101382.91;4994429;28;45392;-77
2021/11/07 07:37:25;;;;;;;;;11.00;11.00;;;;;21.12;48.85;101392.66;5061550;28;45184;-76
2021/11/07 07:39:51;;;;;;;;;13.25;9.25;;;;;21.11;48.76;101393.53;5078944;28;45251;-75
2021/11/07 07:42:16;;;;;;;;;10.50;9.00;;;;;21.11;48.84;101390.88;5063009;28;45648;-80
2021/11/07 07:44:42;;;;;;;;;10.00;9.50;;;;;21.12;48.66;101387.34;5060214;28;45910;-80
2021/11/07 07:47:07;;;;;;;;;12.75;9.25;;;;;21.12;48.71;101396.16;5059772;28;45289;-74
2021/11/07 07:49:33;;;;;;;;;10.50;9.75;;;;;21.10;48.61;101394.44;5061763;28;45208;-72
2021/11/07 07:51:59;;;;;;;;;8.00;8.00;;;;;21.10;48.65;101389.13;5061212;28;45533;-74
2021/11/07 07:54:25;;;;;;;;;13.50;11.00;;;;;21.09;48.58;101393.56;5061357;28;46344;-80
2021/11/07 07:56:52;;;;;;;;;9.00;8.00;;;;;21.08;48.64;101393.59;5060072;28;45367;-74
2021/11/07 07:59:35;;;;;;;;;12.75;8.50;;;;;21.07;48.42;101383.91;5060169;28;45353;-75
2021/11/07 08:02:01;;;;;;;;;14.25;10.00;;;;;21.05;48.47;101385.72;5059712;28;45625;-75
2021/11/07 08:04:26;;;;;;;;;14.50;11.50;;;;;21.02;48.56;101381.34;5060214;28;45430;-76
2021/11/07 08:06:53;;;;;;;;;10.25;8.75;;;;;21.00;48.24;101387.59;5060365;28;45336;-75
2021/11/07 08:09:18;;;;;;;;;8.75;7.25;;;;;20.99;48.10;101385.88;5048083;28;45252;-77
2021/11/07 08:11:43;;;;;;;;;11.00;10.25;;;;;20.96;48.08;101391.25;5040860;28;45349;-74
2021/11/07 08:14:09;;;;;;;;;10.00;8.00;;;;;20.95;48.26;101389.50;5047451;28;46211;-75
2021/11/07 08:16:35;;;;;;;;;11.75;8.50;;;;;20.92;47.91;101395.75;5057038;28;45265;-76
2021/11/07 08:19:01;;;;;;;;;10.00;8.00;;;;;20.91;47.99;101401.09;5043507;28;45291;-75
2021/11/07 08:21:30;;;;;;;;;13.00;10.50;;;;;20.88;48.33;101400.25;5042578;28;45265;-75
2021/11/07 08:23:55;;;;;;;;;11.50;11.50;;;;;20.91;48.48;101394.00;5043106;28;47346;-73
2021/11/07 08:26:21;;;;;;;;;8.75;7.50;;;;;20.91;48.52;101395.78;5059416;28;45346;-77
2021/11/07 08:28:47;;;;;;;;;11.75;9.25;;;;;20.92;48.61;101387.78;5042933;28;45537;-75
2021/11/07 08:31:21;;;;;;;;;9.75;8.00;;;;;20.96;48.47;101381.50;5026001;28;45296;-73
2021/11/07 08:34:08;;;;;;;;;9.00;7.75;;;;;20.99;48.42;101391.16;5061153;28;47309;-76
2021/11/07 08:39:49;;;;;;;;;10.00;7.75;;;;;20.94;47.89;101380.69;5044277;28;45646;-75
2021/11/07 08:42:22;;;;;;;;;16.50;14.00;;;;;20.91;47.70;101371.91;5059903;28;45397;-75
2021/11/07 09:01:27;;;;;;;;;14.00;9.75;;;;;20.94;49.32;101356.81;5044883;28;45435;-76
2021/11/07 09:03:56;;;;;;;;;14.00;12.75;;;;;20.99;48.81;101354.03;5043430;28;45450;-77
2021/11/07 09:09:10;;;;;;;;;17.00;12.00;;;;;21.02;48.60;101359.25;5059346;28;45297;-77
2021/11/07 09:11:35;;;;;;;;;12.25;11.00;;;;;21.02;48.28;101356.59;5042880;28;45356;-78
2021/11/07 09:14:01;;;;;;;;;10.00;10.00;;;;;21.02;48.55;101352.16;5060369;28;45384;-78
2021/11/07 09:16:26;;;;;;;;;12.75;10.75;;;;;21.06;48.57;101353.84;5059547;28;45409;-80
2021/11/07 09:18:57;;;;;;;;;14.50;11.00;;;;;21.02;48.26;101356.59;5065648;28;45256;-78
2021/11/07 09:21:25;;;;;;;;;18.50;14.50;;;;;21.07;48.49;101354.72;5068827;28;45271;-82
2021/11/07 09:23:55;;;;;;;;;12.00;9.75;;;;;21.01;48.15;101349.53;5092918;27;45409;-79
2021/11/07 09:26:27;;;;;;;;;22.50;13.75;;;;;20.96;48.48;101360.28;5058711;28;46174;-78
2021/11/07 09:29:59;;;;;;;;;19.25;11.00;;;;;20.94;48.45;101369.16;5042737;28;45341;-78
2021/11/07 09:32:18;;;;;;;;;14.50;10.00;;;;;20.90;48.79;101355.09;5054261;28;45362;-77
2021/11/07 09:34:51;;;;;;;;;13.00;9.00;;;;;20.87;48.10;101360.50;5044258;28;45557;-77
2021/11/07 09:39:51;;;;;;;;;10.00;9.00;;;;;20.84;48.28;101348.16;5058753;28;45338;-77
2021/11/07 09:44:58;;;;;;;;;8.25;6.50;;;;;20.82;48.62;101360.59;5058613;28;45249;-77
2021/11/07 09:47:26;;;;;;;;;6.00;6.00;;;;;20.81;48.43;101357.97;5043463;28;47796;-77
2021/11/07 09:49:52;;;;;;;;;11.75;6.00;;;;;20.81;48.65;101361.50;5042473;28;45444;-77
2021/11/07 09:52:23;;;;;;;;;10.75;8.25;;;;;20.82;48.63;101363.25;5041771;28;45370;-77
2021/11/07 09:54:59;;;;;;;;;7.50;5.00;;;;;20.80;48.48;101365.06;5034453;28;45452;-76
2021/11/07 09:57:26;;;;;;;;;7.75;6.75;;;;;20.82;48.60;101375.63;5050589;28;48534;-77
2021/11/07 09:59:54;;;;;;;;;8.00;5.00;;;;;20.86;48.55;101388.81;5045191;28;45446;-77
2021/11/07 10:02:19;;;;;;;;;6.00;5.75;;;;;20.87;48.55;101387.91;5045507;28;45333;-77
2021/11/07 10:04:47;;;;;;;;;5.00;4.00;;;;;20.89;48.50;101382.56;5045272;28;45250;-78
2021/11/07 10:07:17;;;;;;;;;6.00;4.75;;;;;20.90;48.50;101376.34;5045504;28;45466;-76
2021/11/07 10:09:43;;;;;;;;;7.25;6.00;;;;;20.92;48.45;101378.94;5061841;28;45574;-77
2021/11/07 10:12:15;;;;;;;;;9.25;7.00;;;;;20.98;48.39;101378.81;5063518;28;45324;-77
2021/11/07 10:14:50;;;;;;;;;3.50;3.00;;;;;21.01;48.29;101371.63;5062338;28;45277;-77
2021/11/07 10:17:40;;;;;;;;;6.00;5.75;;;;;21.07;48.43;101378.59;5061600;28;46039;-76
2021/11/07 10:20:15;;;;;;;;;6.50;5.00;;;;;21.10;48.43;101386.47;5064502;28;45260;-76
2021/11/07 10:22:41;;;;;;;;;4.25;4.00;;;;;21.09;48.03;101382.94;5061994;28;45486;-76
2021/11/07 10:25:15;;;;;;;;;3.00;3.00;;;;;21.11;47.92;101390.88;5047488;28;45729;-77
2021/11/07 10:27:42;;;;;;;;;6.75;4.75;;;;;21.12;47.89;101387.34;5059729;28;46664;-76
2021/11/07 10:30:24;;;;;;;;;5.75;4.50;;;;;21.13;48.10;101383.75;5061621;28;45276;-75
2021/11/07 10:33:01;;;;;;;;;7.50;5.50;;;;;21.13;48.34;101375.81;5047989;28;45296;-79
2021/11/07 10:53:39;;;;;;;;;;;;;;;21.35;50.46;101408.91;5049339;28;45333;-78
2021/11/07 10:56:06;;;;;;;;;1306.80;1007.60;;;;;21.39;51.73;101396.44;5094159;27;45450;-75
2021/11/07 10:58:33;;;;;;;;;1153.40;921.20;;;;;21.42;51.95;101381.28;5056096;28;47377;-74
2021/11/07 11:01:00;;;;;;;;;1003.50;816.33;;;;;21.52;51.93;101381.03;5043068;28;45548;-79
2021/11/07 11:03:26;;;;;;;;;872.80;739.20;;;;;21.57;52.06;101382.69;5043168;28;45790;-75
2021/11/07 11:08:28;;;;;;;;;432.80;387.40;;;;;21.64;51.35;101378.97;5061511;28;45404;-80
2021/11/07 11:13:44;;;;;;;;;206.25;180.50;;;;;21.63;50.46;101366.59;5061064;28;45269;-79
2021/11/07 11:32:40;;;;;;;;;140.50;125.00;;;;;21.79;50.14;101361.72;5060097;28;45413;-82
2021/11/07 11:35:14;;;;;;;;;135.25;125.75;;;;;21.76;50.78;101337.88;5061308;28;45426;-76
2021/11/07 11:38:16;;;;;;;;;125.75;116.75;;;;;21.74;51.39;101315.81;5044735;28;45395;-77
2021/11/07 11:43:12;;;;;;;;;121.75;104.50;;;;;21.83;50.34;101343.91;5060281;28;45269;-82
2021/11/07 11:45:40;;;;;;;;;109.50;96.75;;;;;21.76;49.99;101337.88;5025075;28;45351;-80
2021/11/07 11:51:23;;;;;;;;;116.50;104.50;;;;;21.76;50.89;101351.19;5062410;28;45444;-84
2021/11/07 11:57:09;;;;;;;;;100.50;88.00;;;;;21.75;50.66;101341.47;5060120;28;45516;-81
2021/11/07 11:59:44;;;;;;;;;95.25;89.00;;;;;21.79;50.21;101348.44;5043935;28;45196;-76
2021/11/07 12:02:24;;;;;;;;;96.75;84.75;;;;;21.80;49.93;101349.28;5044200;28;47949;-77
2021/11/07 12:05:05;;;;;;;;;93.75;83.25;;;;;21.78;50.42;101344.03;5049231;28;45784;-83
2021/11/07 12:07:38;;;;;;;;;94.25;85.50;;;;;21.76;50.62;101334.38;5042114;28;45268;-83
2021/11/07 12:10:15;;;;;;;;;81.25;74.25;;;;;21.87;50.29;101345.56;5025243;28;45464;-77
2021/11/07 12:15:24;;;;;;;;;76.75;61.00;;;;;21.88;50.35;101337.53;5059662;28;45652;-76
2021/11/07 12:18:08;;;;;;;;;74.75;59.25;;;;;21.95;50.85;101343.56;5043970;28;45293;-77
2021/11/07 12:20:37;;;;;;;;;69.00;52.75;;;;;21.90;48.69;101329.56;5043536;28;45320;-80
2021/11/07 12:23:12;;;;;;;;;60.50;47.25;;;;;21.99;47.97;101342.56;5059258;28;45995;-77
2021/11/07 12:25:38;;;;;;;;;54.25;43.75;;;;;22.00;47.51;101333.69;5060970;28;45297;-76
2021/11/07 12:28:03;;;;;;;;;55.00;43.00;;;;;22.03;47.34;101328.28;5042754;28;45315;-74
2021/11/07 12:30:30;;;;;;;;;55.25;42.75;;;;;22.07;47.74;101331.72;5060714;28;45457;-77
2021/11/07 12:33:07;;;;;;;;;60.75;47.50;;;;;22.08;47.97;101330.84;5028020;28;46574;-73
2021/11/07 12:35:46;;;;;;;;;64.50;49.50;;;;;22.12;47.82;101325.38;5037016;28;45479;-76
2021/11/07 12:41:07;;;;;;;;;64.75;48.75;;;;;22.14;47.34;101334.16;5040738;28;45380;-75
2021/11/07 12:43:40;;;;;;;;;62.75;49.50;;;;;22.20;47.82;101335.78;5042830;28;45376;-76
2021/11/07 12:49:23;;;;;;;;;62.25;48.00;;;;;22.20;46.57;101335.78;5056248;28;45478;-76
2021/11/07 12:51:50;;;;;;;;;63.50;50.50;;;;;22.16;46.78;101324.38;5061416;28;45660;-76
2021/11/07 12:54:16;;;;;;;;;52.25;42.50;;;;;22.15;46.73;101322.66;5060969;28;46014;-76
2021/11/07 12:56:57;;;;;;;;;63.00;49.50;;;;;22.12;46.79;101312.09;5060339;28;45410;-83
2021/11/07 12:59:42;;;;;;;;;55.25;43.50;;;;;22.07;46.86;101322.00;5060345;28;45228;-81
2021/11/07 13:02:25;;;;;;;;;55.00;43.50;;;;;22.04;46.70;101329.13;5045113;28;45242;-81
2021/11/07 13:05:27;;;;;;;;;57.00;45.00;;;;;22.02;46.73;101339.81;5042792;28;45131;-81
2021/11/07 13:07:57;;;;;;;;;53.50;42.75;;;;;21.97;46.34;101336.41;5060446;28;45537;-79
2021/11/07 13:10:35;;;;;;;;;48.75;38.50;;;;;21.95;45.98;101336.47;5047755;28;44674;-78
2021/11/07 13:13:05;;;;;;;;;46.25;37.00;;;;;21.90;45.85;101332.22;5061858;28;45308;-82
2021/11/07 13:32:01;;;;;;;;;23.00;18.50;;;;;21.55;43.42;101315.44;5061169;28;45264;-81
2021/11/07 13:34:30;;;;;;;;;20.50;20.00;;;;;21.58;43.52;101327.78;5058656;28;45558;-80
2021/11/07 13:36:57;;;;;;;;;22.50;21.25;;;;;21.56;43.60;101321.63;5060103;28;45458;-92
2021/11/07 13:39:36;;;;;;;;;14.75;14.50;;;;;21.52;42.59;101312.84;5057601;28;45427;-86
2021/11/07 13:42:09;;;;;;;;;21.50;19.75;;;;;21.56;42.98;101319.84;5037546;28;45502;-84
2021/11/07 13:44:53;;;;;;;;;15.75;14.75;;;;;21.59;42.66;101324.19;5058733;28;45358;-79
2021/11/07 13:47:22;;;;;;;;;16.00;13.25;;;;;21.58;42.79;101317.16;5048254;28;46161;-75
2021/11/07 13:49:51;;;;;;;;;18.00;17.75;;;;;21.55;42.95;101309.28;5023062;28;45988;-73
2021/11/07 13:52:20;;;;;;;;;17.25;13.00;;;;;21.61;42.75;101315.25;5039073;28;45755;-80
2021/11/07 13:54:45;;;;;;;;;13.75;12.25;;;;;21.61;42.12;101309.94;5023795;28;45566;-74
2021/11/07 13:57:11;;;;;;;;;7.75;7.75;;;;;21.59;42.15;101308.25;5040899;28;47926;-73
2021/11/07 13:59:40;;;;;;;;;12.50;11.50;;;;;21.59;42.24;101306.47;5041223;28;45387;-75
2021/11/07 14:02:17;;;;;;;;;14.25;8.50;;;;;21.56;41.44;101303.03;5058167;28;45284;-73
2021/11/07 14:04:42;;;;;;;;;10.00;7.00;;;;;21.52;41.57;101298.72;5041697;28;45432;-72
2021/11/07 14:07:29;;;;;;;;;8.00;7.50;;;;;21.47;41.53;101305.94;5059706;28;45362;-76
2021/11/07 14:10:07;;;;;;;;;10.25;9.25;;;;;21.47;42.28;101314.78;5043158;28;45414;-74